sensor_id;sensor_type;location;lat;lon;timestamp;temperature;humidity
56184;DHT22;42086;53.170;6.980;2022-12-18T00:00:46;-2.30;99.90
56184;DHT22;42086;53.170;6.980;2022-12-18T00:03:13;-1.80;99.90
56184;DHT22;42086;53.170;6.980;2022-12-18T00:05:50;-1.30;99.90
56184;DHT22;42086;53.170;6.980;2022-12-18T00:08:16;-2.10;99.90
56184;DHT22;42086;53.170;6.980;2022-12-18T00:10:42;-2.40;99.90
56184;DHT22;42086;53.170;6.980;2022-12-18T00:13:08;-1.00;99.90
56184;DHT22;42086;53.170;6.980;2022-12-18T00:15:35;-1.60;99.90
56184;DHT22;42086;53.170;6.980;2022-12-18T00:18:01;-1.10;99.90
56184;DHT22;42086;53.170;6.980;2022-12-18T00:20:26;-2.40;99.90
56184;DHT22;42086;53.170;6.980;2022-12-18T00:22:53;-2.40;99.90
56184;DHT22;42086;53.170;6.980;2022-12-18T00:25:19;-1.50;99.90
56184;DHT22;42086;53.170;6.980;2022-12-18T00:27:45;-2.50;99.90
56184;DHT22;42086;53.170;6.980;2022-12-18T00:30:11;-2.10;99.90
56184;DHT22;42086;53.170;6.980;2022-12-18T00:32:37;-2.60;99.90
56184;DHT22;42086;53.170;6.980;2022-12-18T00:35:03;-2.60;99.90
56184;DHT22;42086;53.170;6.980;2022-12-18T00:37:29;-2.70;99.90
56184;DHT22;42086;53.170;6.980;2022-12-18T00:39:55;-1.40;99.90
56184;DHT22;42086;53.170;6.980;2022-12-18T00:42:21;-2.00;99.90
56184;DHT22;42086;53.170;6.980;2022-12-18T00:45:06;-1.80;99.90
56184;DHT22;42086;53.170;6.980;2022-12-18T00:47:31;-2.80;99.90
56184;DHT22;42086;53.170;6.980;2022-12-18T00:49:57;-2.80;99.90
56184;DHT22;42086;53.170;6.980;2022-12-18T00:52:23;-2.80;99.90
56184;DHT22;42086;53.170;6.980;2022-12-18T00:54:48;-2.80;99.90
56184;DHT22;42086;53.170;6.980;2022-12-18T00:57:14;-2.80;99.90
56184;DHT22;42086;53.170;6.980;2022-12-18T00:59:40;-2.10;99.90
56184;DHT22;42086;53.170;6.980;2022-12-18T01:02:05;-2.90;99.90
56184;DHT22;42086;53.170;6.980;2022-12-18T01:04:32;-1.80;99.90
56184;DHT22;42086;53.170;6.980;2022-12-18T01:06:58;-1.80;99.90
56184;DHT22;42086;53.170;6.980;2022-12-18T01:09:24;-2.80;99.90
56184;DHT22;42086;53.170;6.980;2022-12-18T01:11:50;-1.90;99.90
56184;DHT22;42086;53.170;6.980;2022-12-18T01:14:15;-2.80;99.90
56184;DHT22;42086;53.170;6.980;2022-12-18T01:16:41;-2.80;99.90
56184;DHT22;42086;53.170;6.980;2022-12-18T01:19:07;-1.80;99.90
56184;DHT22;42086;53.170;6.980;2022-12-18T01:21:33;-1.90;99.90
56184;DHT22;42086;53.170;6.980;2022-12-18T01:23:58;-2.90;99.90
56184;DHT22;42086;53.170;6.980;2022-12-18T01:26:25;-1.70;99.90
56184;DHT22;42086;53.170;6.980;2022-12-18T01:28:51;-1.70;99.90
56184;DHT22;42086;53.170;6.980;2022-12-18T01:31:29;-2.90;99.90
56184;DHT22;42086;53.170;6.980;2022-12-18T01:33:55;-2.90;99.90
56184;DHT22;42086;53.170;6.980;2022-12-18T01:36:27;-2.90;99.90
56184;DHT22;42086;53.170;6.980;2022-12-18T01:38:53;-1.70;99.90
56184;DHT22;42086;53.170;6.980;2022-12-18T01:41:26;-3.00;99.90
56184;DHT22;42086;53.170;6.980;2022-12-18T01:43:57;-1.90;99.90
56184;DHT22;42086;53.170;6.980;2022-12-18T01:46:24;-3.00;99.90
56184;DHT22;42086;53.170;6.980;2022-12-18T01:48:56;-3.10;99.90
56184;DHT22;42086;53.170;6.980;2022-12-18T01:51:23;-1.90;99.90
56184;DHT22;42086;53.170;6.980;2022-12-18T01:53:49;-3.10;99.90
56184;DHT22;42086;53.170;6.980;2022-12-18T01:56:17;-2.20;99.90
56184;DHT22;42086;53.170;6.980;2022-12-18T02:01:23;-3.10;99.90
56184;DHT22;42086;53.170;6.980;2022-12-18T02:03:49;-2.80;99.90
56184;DHT22;42086;53.170;6.980;2022-12-18T02:06:16;-2.50;99.90
56184;DHT22;42086;53.170;6.980;2022-12-18T02:08:58;-3.30;99.90
56184;DHT22;42086;53.170;6.980;2022-12-18T02:11:41;-3.30;99.90
56184;DHT22;42086;53.170;6.980;2022-12-18T02:17:01;-3.40;99.90
56184;DHT22;42086;53.170;6.980;2022-12-18T02:28:21;-3.70;99.90
56184;DHT22;42086;53.170;6.980;2022-12-18T02:30:49;-3.70;99.90
56184;DHT22;42086;53.170;6.980;2022-12-18T02:33:15;-3.80;99.90
56184;DHT22;42086;53.170;6.980;2022-12-18T02:35:44;-2.80;99.90
56184;DHT22;42086;53.170;6.980;2022-12-18T02:38:12;-3.80;99.90
56184;DHT22;42086;53.170;6.980;2022-12-18T02:40:39;-3.90;99.90
56184;DHT22;42086;53.170;6.980;2022-12-18T02:43:14;-2.80;99.90
56184;DHT22;42086;53.170;6.980;2022-12-18T02:45:55;-3.30;99.90
56184;DHT22;42086;53.170;6.980;2022-12-18T02:48:29;-4.00;99.90
56184;DHT22;42086;53.170;6.980;2022-12-18T02:51:59;-4.10;99.90
56184;DHT22;42086;53.170;6.980;2022-12-18T02:54:23;-4.00;99.90
56184;DHT22;42086;53.170;6.980;2022-12-18T02:56:53;-3.00;99.90
56184;DHT22;42086;53.170;6.980;2022-12-18T02:59:26;-3.90;99.90
56184;DHT22;42086;53.170;6.980;2022-12-18T03:02:05;-4.00;99.90
56184;DHT22;42086;53.170;6.980;2022-12-18T03:04:47;-4.10;99.90
56184;DHT22;42086;53.170;6.980;2022-12-18T03:08:08;-4.10;99.90
56184;DHT22;42086;53.170;6.980;2022-12-18T03:10:18;-4.10;99.90
56184;DHT22;42086;53.170;6.980;2022-12-18T03:12:50;-4.20;99.90
56184;DHT22;42086;53.170;6.980;2022-12-18T03:15:29;-4.30;99.90
56184;DHT22;42086;53.170;6.980;2022-12-18T03:18:10;-4.30;99.90
56184;DHT22;42086;53.170;6.980;2022-12-18T03:20:37;-4.20;99.90
56184;DHT22;42086;53.170;6.980;2022-12-18T03:23:18;-3.50;99.90
56184;DHT22;42086;53.170;6.980;2022-12-18T03:25:46;-4.40;99.90
56184;DHT22;42086;53.170;6.980;2022-12-18T03:28:15;-4.40;99.90
56184;DHT22;42086;53.170;6.980;2022-12-18T03:30:44;-4.30;99.90
56184;DHT22;42086;53.170;6.980;2022-12-18T03:33:18;-4.40;99.90
56184;DHT22;42086;53.170;6.980;2022-12-18T03:35:46;-4.40;99.90
56184;DHT22;42086;53.170;6.980;2022-12-18T03:38:12;-4.50;99.90
56184;DHT22;42086;53.170;6.980;2022-12-18T03:40:50;-4.40;99.90
56184;DHT22;42086;53.170;6.980;2022-12-18T03:43:48;-4.50;99.90
56184;DHT22;42086;53.170;6.980;2022-12-18T03:46:25;-4.60;99.90
56184;DHT22;42086;53.170;6.980;2022-12-18T03:48:59;-4.50;99.90
56184;DHT22;42086;53.170;6.980;2022-12-18T03:51:40;-4.50;99.90
56184;DHT22;42086;53.170;6.980;2022-12-18T03:54:09;-3.90;99.90
56184;DHT22;42086;53.170;6.980;2022-12-18T03:56:54;-4.60;99.90
56184;DHT22;42086;53.170;6.980;2022-12-18T03:59:24;-3.60;99.90
56184;DHT22;42086;53.170;6.980;2022-12-18T04:01:52;-4.60;99.90
56184;DHT22;42086;53.170;6.980;2022-12-18T04:04:19;-4.70;99.90
56184;DHT22;42086;53.170;6.980;2022-12-18T04:06:46;-4.70;99.90
56184;DHT22;42086;53.170;6.980;2022-12-18T04:09:13;-4.70;99.90
56184;DHT22;42086;53.170;6.980;2022-12-18T04:11:41;-3.90;99.90
56184;DHT22;42086;53.170;6.980;2022-12-18T04:14:09;-4.80;99.90
56184;DHT22;42086;53.170;6.980;2022-12-18T04:16:35;-4.80;99.90
56184;DHT22;42086;53.170;6.980;2022-12-18T04:19:01;-4.80;99.90
56184;DHT22;42086;53.170;6.980;2022-12-18T04:21:26;-4.80;99.90
56184;DHT22;42086;53.170;6.980;2022-12-18T04:23:52;-4.40;99.90
56184;DHT22;42086;53.170;6.980;2022-12-18T04:26:18;-4.90;99.90
56184;DHT22;42086;53.170;6.980;2022-12-18T04:28:44;-3.70;99.90
56184;DHT22;42086;53.170;6.980;2022-12-18T04:31:09;-4.90;99.90
56184;DHT22;42086;53.170;6.980;2022-12-18T04:33:35;-4.90;99.90
56184;DHT22;42086;53.170;6.980;2022-12-18T04:36:01;-4.50;99.90
56184;DHT22;42086;53.170;6.980;2022-12-18T04:38:26;-5.00;99.90
56184;DHT22;42086;53.170;6.980;2022-12-18T04:40:52;-5.10;99.90
56184;DHT22;42086;53.170;6.980;2022-12-18T04:43:18;-5.00;99.90
56184;DHT22;42086;53.170;6.980;2022-12-18T04:45:43;-5.10;99.90
56184;DHT22;42086;53.170;6.980;2022-12-18T04:48:09;-5.00;99.90
56184;DHT22;42086;53.170;6.980;2022-12-18T04:50:35;-5.10;99.90
56184;DHT22;42086;53.170;6.980;2022-12-18T04:53:01;-5.10;99.90
56184;DHT22;42086;53.170;6.980;2022-12-18T04:55:27;-5.20;99.90
56184;DHT22;42086;53.170;6.980;2022-12-18T04:57:53;-5.10;99.90
56184;DHT22;42086;53.170;6.980;2022-12-18T05:00:19;-5.10;99.90
56184;DHT22;42086;53.170;6.980;2022-12-18T05:02:45;-5.20;99.90
56184;DHT22;42086;53.170;6.980;2022-12-18T05:05:11;-5.20;99.90
56184;DHT22;42086;53.170;6.980;2022-12-18T05:07:37;-5.10;99.90
56184;DHT22;42086;53.170;6.980;2022-12-18T05:10:03;-4.20;99.90
56184;DHT22;42086;53.170;6.980;2022-12-18T05:12:30;-5.20;99.90
56184;DHT22;42086;53.170;6.980;2022-12-18T05:14:56;-5.20;99.90
56184;DHT22;42086;53.170;6.980;2022-12-18T05:17:22;-5.20;99.90
56184;DHT22;42086;53.170;6.980;2022-12-18T05:19:48;-4.40;99.90
56184;DHT22;42086;53.170;6.980;2022-12-18T05:22:13;-5.20;99.90
56184;DHT22;42086;53.170;6.980;2022-12-18T05:24:39;-5.30;99.90
56184;DHT22;42086;53.170;6.980;2022-12-18T05:27:05;-5.30;99.90
56184;DHT22;42086;53.170;6.980;2022-12-18T05:29:30;-5.30;99.90
56184;DHT22;42086;53.170;6.980;2022-12-18T05:31:56;-3.90;99.90
56184;DHT22;42086;53.170;6.980;2022-12-18T05:34:22;-5.00;99.90
56184;DHT22;42086;53.170;6.980;2022-12-18T05:36:47;-5.30;99.90
56184;DHT22;42086;53.170;6.980;2022-12-18T05:39:13;-4.50;99.90
56184;DHT22;42086;53.170;6.980;2022-12-18T05:41:39;-5.30;99.90
56184;DHT22;42086;53.170;6.980;2022-12-18T05:44:05;-5.30;99.90
56184;DHT22;42086;53.170;6.980;2022-12-18T05:46:31;-5.20;99.90
56184;DHT22;42086;53.170;6.980;2022-12-18T05:48:59;-5.20;99.90
56184;DHT22;42086;53.170;6.980;2022-12-18T05:51:26;-4.20;99.90
56184;DHT22;42086;53.170;6.980;2022-12-18T05:53:52;-5.30;99.90
56184;DHT22;42086;53.170;6.980;2022-12-18T05:56:21;-5.20;99.90
56184;DHT22;42086;53.170;6.980;2022-12-18T05:58:47;-4.20;99.90
56184;DHT22;42086;53.170;6.980;2022-12-18T06:01:19;-5.30;99.90
56184;DHT22;42086;53.170;6.980;2022-12-18T06:03:45;-5.20;99.90
56184;DHT22;42086;53.170;6.980;2022-12-18T06:06:15;-5.20;99.90
56184;DHT22;42086;53.170;6.980;2022-12-18T06:08:41;-5.20;99.90
56184;DHT22;42086;53.170;6.980;2022-12-18T06:11:07;-5.20;99.90
56184;DHT22;42086;53.170;6.980;2022-12-18T06:13:33;-5.30;99.90
56184;DHT22;42086;53.170;6.980;2022-12-18T06:16:02;-5.30;99.90
56184;DHT22;42086;53.170;6.980;2022-12-18T06:18:28;-5.30;99.90
56184;DHT22;42086;53.170;6.980;2022-12-18T06:20:57;-5.30;99.90
56184;DHT22;42086;53.170;6.980;2022-12-18T06:23:23;-5.40;99.90
56184;DHT22;42086;53.170;6.980;2022-12-18T06:25:49;-5.40;99.90
56184;DHT22;42086;53.170;6.980;2022-12-18T06:28:15;-4.70;99.90
56184;DHT22;42086;53.170;6.980;2022-12-18T06:30:44;-5.40;99.90
56184;DHT22;42086;53.170;6.980;2022-12-18T06:33:10;-5.40;99.90
56184;DHT22;42086;53.170;6.980;2022-12-18T06:35:35;-5.40;99.90
56184;DHT22;42086;53.170;6.980;2022-12-18T06:38:02;-5.50;99.90
56184;DHT22;42086;53.170;6.980;2022-12-18T06:40:28;-5.50;99.90
56184;DHT22;42086;53.170;6.980;2022-12-18T06:42:53;-5.50;99.90
56184;DHT22;42086;53.170;6.980;2022-12-18T06:45:19;-5.60;99.90
56184;DHT22;42086;53.170;6.980;2022-12-18T06:47:46;-5.60;99.90
56184;DHT22;42086;53.170;6.980;2022-12-18T06:50:12;-5.60;99.90
56184;DHT22;42086;53.170;6.980;2022-12-18T06:52:38;-5.70;99.90
56184;DHT22;42086;53.170;6.980;2022-12-18T06:55:11;-5.70;99.90
56184;DHT22;42086;53.170;6.980;2022-12-18T06:57:37;-5.70;99.90
56184;DHT22;42086;53.170;6.980;2022-12-18T07:00:04;-4.70;99.90
56184;DHT22;42086;53.170;6.980;2022-12-18T07:02:30;-5.70;99.90
56184;DHT22;42086;53.170;6.980;2022-12-18T07:04:56;-5.70;99.90
56184;DHT22;42086;53.170;6.980;2022-12-18T07:07:22;-5.80;99.90
56184;DHT22;42086;53.170;6.980;2022-12-18T07:09:49;-5.80;99.90
56184;DHT22;42086;53.170;6.980;2022-12-18T07:12:15;-6.40;99.90
56184;DHT22;42086;53.170;6.980;2022-12-18T07:14:41;-5.80;99.90
56184;DHT22;42086;53.170;6.980;2022-12-18T07:17:06;-5.80;99.90
56184;DHT22;42086;53.170;6.980;2022-12-18T07:19:33;-5.80;99.90
56184;DHT22;42086;53.170;6.980;2022-12-18T07:21:59;-4.70;99.90
56184;DHT22;42086;53.170;6.980;2022-12-18T07:24:24;-5.80;99.90
56184;DHT22;42086;53.170;6.980;2022-12-18T07:26:50;-5.70;99.90
56184;DHT22;42086;53.170;6.980;2022-12-18T07:29:16;-4.60;99.90
56184;DHT22;42086;53.170;6.980;2022-12-18T07:31:42;-5.70;99.90
56184;DHT22;42086;53.170;6.980;2022-12-18T07:34:14;-5.40;99.90
56184;DHT22;42086;53.170;6.980;2022-12-18T07:36:40;-5.70;99.90
56184;DHT22;42086;53.170;6.980;2022-12-18T07:39:06;-5.70;99.90
56184;DHT22;42086;53.170;6.980;2022-12-18T07:41:32;-4.60;99.90
56184;DHT22;42086;53.170;6.980;2022-12-18T07:43:58;-5.70;99.90
56184;DHT22;42086;53.170;6.980;2022-12-18T07:46:24;-5.70;99.90
56184;DHT22;42086;53.170;6.980;2022-12-18T07:48:50;-5.70;99.90
56184;DHT22;42086;53.170;6.980;2022-12-18T07:51:16;-5.70;99.90
56184;DHT22;42086;53.170;6.980;2022-12-18T07:53:42;-5.70;99.90
56184;DHT22;42086;53.170;6.980;2022-12-18T07:56:09;-5.60;99.90
56184;DHT22;42086;53.170;6.980;2022-12-18T07:58:36;-4.40;99.90
56184;DHT22;42086;53.170;6.980;2022-12-18T08:01:03;-5.60;99.90
56184;DHT22;42086;53.170;6.980;2022-12-18T08:03:30;-5.60;99.90
56184;DHT22;42086;53.170;6.980;2022-12-18T08:06:00;-5.50;99.90
56184;DHT22;42086;53.170;6.980;2022-12-18T08:08:25;-5.30;99.90
56184;DHT22;42086;53.170;6.980;2022-12-18T08:10:51;-5.40;99.90
56184;DHT22;42086;53.170;6.980;2022-12-18T08:13:17;-5.30;99.90
56184;DHT22;42086;53.170;6.980;2022-12-18T08:15:42;-5.20;99.90
56184;DHT22;42086;53.170;6.980;2022-12-18T08:18:08;-5.10;99.90
56184;DHT22;42086;53.170;6.980;2022-12-18T08:20:34;-3.80;99.90
56184;DHT22;42086;53.170;6.980;2022-12-18T08:22:59;-4.90;99.90
56184;DHT22;42086;53.170;6.980;2022-12-18T08:25:25;-4.90;99.90
56184;DHT22;42086;53.170;6.980;2022-12-18T08:27:51;-4.90;99.90
56184;DHT22;42086;53.170;6.980;2022-12-18T08:30:17;-4.80;99.90
56184;DHT22;42086;53.170;6.980;2022-12-18T08:32:42;-4.80;99.90
56184;DHT22;42086;53.170;6.980;2022-12-18T08:35:08;-3.80;99.90
56184;DHT22;42086;53.170;6.980;2022-12-18T08:37:34;-4.70;99.90
56184;DHT22;42086;53.170;6.980;2022-12-18T08:40:00;-4.70;99.90
56184;DHT22;42086;53.170;6.980;2022-12-18T08:42:26;-4.60;99.90
56184;DHT22;42086;53.170;6.980;2022-12-18T08:45:10;-4.50;99.90
56184;DHT22;42086;53.170;6.980;2022-12-18T08:47:36;-4.50;99.90
56184;DHT22;42086;53.170;6.980;2022-12-18T08:50:01;-4.60;99.90
56184;DHT22;42086;53.170;6.980;2022-12-18T08:52:27;-4.50;99.90
56184;DHT22;42086;53.170;6.980;2022-12-18T08:54:53;-4.40;99.90
56184;DHT22;42086;53.170;6.980;2022-12-18T08:57:19;-4.40;99.90
56184;DHT22;42086;53.170;6.980;2022-12-18T08:59:45;-4.40;99.90
56184;DHT22;42086;53.170;6.980;2022-12-18T09:02:10;-3.20;99.90
56184;DHT22;42086;53.170;6.980;2022-12-18T09:04:36;-3.70;99.90
56184;DHT22;42086;53.170;6.980;2022-12-18T09:07:02;-4.20;99.90
56184;DHT22;42086;53.170;6.980;2022-12-18T09:09:28;-3.10;99.90
56184;DHT22;42086;53.170;6.980;2022-12-18T09:11:54;-2.90;99.90
56184;DHT22;42086;53.170;6.980;2022-12-18T09:14:19;-3.60;99.90
56184;DHT22;42086;53.170;6.980;2022-12-18T09:16:45;-4.00;99.90
56184;DHT22;42086;53.170;6.980;2022-12-18T09:19:11;-3.90;99.90
56184;DHT22;42086;53.170;6.980;2022-12-18T09:21:37;-2.80;99.90
56184;DHT22;42086;53.170;6.980;2022-12-18T09:24:04;-3.80;99.90
56184;DHT22;42086;53.170;6.980;2022-12-18T09:26:30;-3.70;99.90
56184;DHT22;42086;53.170;6.980;2022-12-18T09:28:56;-3.60;99.90
56184;DHT22;42086;53.170;6.980;2022-12-18T09:31:23;-3.40;99.90
56184;DHT22;42086;53.170;6.980;2022-12-18T09:33:50;-3.40;99.90
56184;DHT22;42086;53.170;6.980;2022-12-18T09:36:16;-2.50;99.90
56184;DHT22;42086;53.170;6.980;2022-12-18T09:38:43;-2.10;99.90
56184;DHT22;42086;53.170;6.980;2022-12-18T09:43:55;-2.90;99.90
56184;DHT22;42086;53.170;6.980;2022-12-18T09:46:34;-2.80;99.90
56184;DHT22;42086;53.170;6.980;2022-12-18T09:49:03;-2.70;99.90
56184;DHT22;42086;53.170;6.980;2022-12-18T09:51:52;-2.50;99.90
56184;DHT22;42086;53.170;6.980;2022-12-18T09:54:46;-2.50;99.90
56184;DHT22;42086;53.170;6.980;2022-12-18T09:57:17;-2.50;99.90
56184;DHT22;42086;53.170;6.980;2022-12-18T09:59:48;-2.40;99.90
56184;DHT22;42086;53.170;6.980;2022-12-18T10:02:21;-2.50;99.90
56184;DHT22;42086;53.170;6.980;2022-12-18T10:05:10;-1.20;99.90
56184;DHT22;42086;53.170;6.980;2022-12-18T10:10:32;-2.40;99.90
56184;DHT22;42086;53.170;6.980;2022-12-18T10:15:46;-2.40;99.90
56184;DHT22;42086;53.170;6.980;2022-12-18T10:18:58;-2.40;99.90
56184;DHT22;42086;53.170;6.980;2022-12-18T10:21:11;-2.30;99.90
56184;DHT22;42086;53.170;6.980;2022-12-18T10:26:11;-1.90;99.90
56184;DHT22;42086;53.170;6.980;2022-12-18T10:28:40;-0.80;99.90
56184;DHT22;42086;53.170;6.980;2022-12-18T10:31:21;-1.50;99.90
56184;DHT22;42086;53.170;6.980;2022-12-18T10:33:46;-0.70;99.90
56184;DHT22;42086;53.170;6.980;2022-12-18T10:36:13;-0.60;99.90
56184;DHT22;42086;53.170;6.980;2022-12-18T10:38:39;-0.90;99.90
56184;DHT22;42086;53.170;6.980;2022-12-18T10:41:06;-0.70;99.90
56184;DHT22;42086;53.170;6.980;2022-12-18T10:43:35;-0.60;99.90
56184;DHT22;42086;53.170;6.980;2022-12-18T10:46:03;-0.20;99.90
56184;DHT22;42086;53.170;6.980;2022-12-18T10:48:33;-0.10;99.90
56184;DHT22;42086;53.170;6.980;2022-12-18T10:51:00;-0.30;99.90
56184;DHT22;42086;53.170;6.980;2022-12-18T10:53:28;-0.20;99.90
56184;DHT22;42086;53.170;6.980;2022-12-18T10:55:57;-0.70;99.90
56184;DHT22;42086;53.170;6.980;2022-12-18T10:58:36;0.40;99.90
56184;DHT22;42086;53.170;6.980;2022-12-18T11:01:17;-0.80;99.90
56184;DHT22;42086;53.170;6.980;2022-12-18T11:03:59;-0.10;99.90
56184;DHT22;42086;53.170;6.980;2022-12-18T11:06:26;-0.70;99.90
56184;DHT22;42086;53.170;6.980;2022-12-18T11:09:04;-0.90;99.90
56184;DHT22;42086;53.170;6.980;2022-12-18T11:11:31;-0.90;99.90
56184;DHT22;42086;53.170;6.980;2022-12-18T11:16:23;-0.90;99.90
56184;DHT22;42086;53.170;6.980;2022-12-18T11:18:49;-0.90;99.90
56184;DHT22;42086;53.170;6.980;2022-12-18T11:21:15;-0.80;99.90
56184;DHT22;42086;53.170;6.980;2022-12-18T11:23:50;-0.80;99.90
56184;DHT22;42086;53.170;6.980;2022-12-18T11:26:17;-0.80;99.90
56184;DHT22;42086;53.170;6.980;2022-12-18T11:28:50;-0.20;99.90
56184;DHT22;42086;53.170;6.980;2022-12-18T11:31:27;0.00;99.90
56184;DHT22;42086;53.170;6.980;2022-12-18T11:34:28;-0.70;99.90
56184;DHT22;42086;53.170;6.980;2022-12-18T11:36:54;-0.70;99.90
56184;DHT22;42086;53.170;6.980;2022-12-18T11:53:12;-0.60;99.90
56184;DHT22;42086;53.170;6.980;2022-12-18T11:58:42;-0.30;99.90
56184;DHT22;42086;53.170;6.980;2022-12-18T12:01:22;-0.50;99.90
56184;DHT22;42086;53.170;6.980;2022-12-18T12:12:39;-0.50;99.90
56184;DHT22;42086;53.170;6.980;2022-12-18T12:17:58;-0.40;99.90
56184;DHT22;42086;53.170;6.980;2022-12-18T12:40:37;-0.20;99.90
56184;DHT22;42086;53.170;6.980;2022-12-18T12:50:50;-0.10;99.90
56184;DHT22;42086;53.170;6.980;2022-12-18T12:53:31;-0.10;99.90
56184;DHT22;42086;53.170;6.980;2022-12-18T12:55:58;0.10;99.90
56184;DHT22;42086;53.170;6.980;2022-12-18T12:58:51;-0.10;99.90
56184;DHT22;42086;53.170;6.980;2022-12-18T13:01:41;-0.10;99.90
56184;DHT22;42086;53.170;6.980;2022-12-18T13:04:31;-0.10;99.90
56184;DHT22;42086;53.170;6.980;2022-12-18T13:07:20;-0.10;99.90
56184;DHT22;42086;53.170;6.980;2022-12-18T13:12:36;-0.10;99.90
56184;DHT22;42086;53.170;6.980;2022-12-18T13:15:42;0.30;99.90
56184;DHT22;42086;53.170;6.980;2022-12-18T13:34:17;0.00;99.90
56184;DHT22;42086;53.170;6.980;2022-12-18T13:36:43;0.00;99.90
56184;DHT22;42086;53.170;6.980;2022-12-18T13:41:37;-0.10;99.90
56184;DHT22;42086;53.170;6.980;2022-12-18T13:44:36;-0.10;99.90
56184;DHT22;42086;53.170;6.980;2022-12-18T13:47:36;-0.10;99.90
56184;DHT22;42086;53.170;6.980;2022-12-18T13:50:23;-0.20;99.90
56184;DHT22;42086;53.170;6.980;2022-12-18T13:52:50;-0.30;99.90
56184;DHT22;42086;53.170;6.980;2022-12-18T13:55:19;-0.30;99.90
56184;DHT22;42086;53.170;6.980;2022-12-18T13:57:46;-0.30;99.90
56184;DHT22;42086;53.170;6.980;2022-12-18T14:00:32;0.40;99.90
56184;DHT22;42086;53.170;6.980;2022-12-18T14:02:59;0.50;99.90
56184;DHT22;42086;53.170;6.980;2022-12-18T14:05:30;-0.30;99.90
56184;DHT22;42086;53.170;6.980;2022-12-18T14:08:11;-0.40;99.90
56184;DHT22;42086;53.170;6.980;2022-12-18T14:10:42;-0.50;99.90
56184;DHT22;42086;53.170;6.980;2022-12-18T14:13:10;-0.50;99.90
56184;DHT22;42086;53.170;6.980;2022-12-18T14:15:41;-0.60;99.90
56184;DHT22;42086;53.170;6.980;2022-12-18T14:20:47;-0.50;99.90
56184;DHT22;42086;53.170;6.980;2022-12-18T14:23:41;-0.70;99.90
56184;DHT22;42086;53.170;6.980;2022-12-18T14:28:45;-0.80;99.90
56184;DHT22;42086;53.170;6.980;2022-12-18T14:31:29;-0.80;99.90
56184;DHT22;42086;53.170;6.980;2022-12-18T14:33:55;-0.90;99.90
56184;DHT22;42086;53.170;6.980;2022-12-18T14:36:24;-0.60;99.90
56184;DHT22;42086;53.170;6.980;2022-12-18T14:38:56;-0.90;99.90
56184;DHT22;42086;53.170;6.980;2022-12-18T14:41:22;-0.20;99.90
56184;DHT22;42086;53.170;6.980;2022-12-18T14:43:50;0.00;99.90
56184;DHT22;42086;53.170;6.980;2022-12-18T14:46:29;-0.60;99.90
56184;DHT22;42086;53.170;6.980;2022-12-18T14:48:56;-1.10;99.90
56184;DHT22;42086;53.170;6.980;2022-12-18T14:51:24;-1.10;99.90
56184;DHT22;42086;53.170;6.980;2022-12-18T14:54:05;-1.00;99.90
56184;DHT22;42086;53.170;6.980;2022-12-18T14:56:37;-0.10;99.90
56184;DHT22;42086;53.170;6.980;2022-12-18T14:59:24;-1.10;99.90
56184;DHT22;42086;53.170;6.980;2022-12-18T15:02:04;-1.10;99.90
56184;DHT22;42086;53.170;6.980;2022-12-18T15:04:38;-1.20;99.90
56184;DHT22;42086;53.170;6.980;2022-12-18T15:07:22;-1.20;99.90
56184;DHT22;42086;53.170;6.980;2022-12-18T15:13:22;-1.20;99.90
56184;DHT22;42086;53.170;6.980;2022-12-18T15:18:15;-0.10;99.90
56184;DHT22;42086;53.170;6.980;2022-12-18T15:20:46;-1.20;99.90
56184;DHT22;42086;53.170;6.980;2022-12-18T15:36:14;-1.20;99.90
56184;DHT22;42086;53.170;6.980;2022-12-18T15:38:40;-0.90;99.90
56184;DHT22;42086;53.170;6.980;2022-12-18T15:41:13;-0.10;99.90
56184;DHT22;42086;53.170;6.980;2022-12-18T15:43:39;-1.20;99.90
56184;DHT22;42086;53.170;6.980;2022-12-18T15:46:06;-0.20;99.90
56184;DHT22;42086;53.170;6.980;2022-12-18T15:48:38;-1.30;99.90
56184;DHT22;42086;53.170;6.980;2022-12-18T15:51:07;-1.30;99.90
56184;DHT22;42086;53.170;6.980;2022-12-18T15:53:38;-1.30;99.90
56184;DHT22;42086;53.170;6.980;2022-12-18T15:56:07;-1.20;99.90
56184;DHT22;42086;53.170;6.980;2022-12-18T15:58:52;-1.30;99.90
56184;DHT22;42086;53.170;6.980;2022-12-18T16:01:18;-1.30;99.90
56184;DHT22;42086;53.170;6.980;2022-12-18T16:03:45;-1.30;99.90
56184;DHT22;42086;53.170;6.980;2022-12-18T16:06:11;-1.10;99.90
56184;DHT22;42086;53.170;6.980;2022-12-18T16:08:37;-1.30;99.90
56184;DHT22;42086;53.170;6.980;2022-12-18T16:11:02;-1.20;99.90
56184;DHT22;42086;53.170;6.980;2022-12-18T16:13:28;-0.50;99.90
56184;DHT22;42086;53.170;6.980;2022-12-18T16:15:54;-1.20;99.90
56184;DHT22;42086;53.170;6.980;2022-12-18T16:18:20;-0.60;99.90
56184;DHT22;42086;53.170;6.980;2022-12-18T16:20:45;-1.20;99.90
56184;DHT22;42086;53.170;6.980;2022-12-18T16:23:13;-0.30;99.90
56184;DHT22;42086;53.170;6.980;2022-12-18T16:25:39;-1.20;99.90
56184;DHT22;42086;53.170;6.980;2022-12-18T16:28:04;-0.70;99.90
56184;DHT22;42086;53.170;6.980;2022-12-18T16:30:31;-0.10;99.90
56184;DHT22;42086;53.170;6.980;2022-12-18T16:32:58;-0.80;99.90
56184;DHT22;42086;53.170;6.980;2022-12-18T16:35:24;-0.30;99.90
56184;DHT22;42086;53.170;6.980;2022-12-18T16:37:50;-0.20;99.90
56184;DHT22;42086;53.170;6.980;2022-12-18T16:40:19;0.30;99.90
56184;DHT22;42086;53.170;6.980;2022-12-18T16:42:45;-1.00;99.90
56184;DHT22;42086;53.170;6.980;2022-12-18T16:45:15;0.10;99.90
56184;DHT22;42086;53.170;6.980;2022-12-18T16:47:41;0.10;99.90
56184;DHT22;42086;53.170;6.980;2022-12-18T16:50:08;-0.90;99.90
56184;DHT22;42086;53.170;6.980;2022-12-18T16:52:34;-0.80;99.90
56184;DHT22;42086;53.170;6.980;2022-12-18T16:55:00;0.50;99.90
56184;DHT22;42086;53.170;6.980;2022-12-18T16:57:26;0.20;99.90
56184;DHT22;42086;53.170;6.980;2022-12-18T16:59:52;-0.70;99.90
56184;DHT22;42086;53.170;6.980;2022-12-18T17:02:22;0.30;99.90
56184;DHT22;42086;53.170;6.980;2022-12-18T17:04:48;0.30;99.90
56184;DHT22;42086;53.170;6.980;2022-12-18T17:07:14;0.30;99.90
56184;DHT22;42086;53.170;6.980;2022-12-18T17:09:40;-0.60;99.90
56184;DHT22;42086;53.170;6.980;2022-12-18T17:12:07;0.10;99.90
56184;DHT22;42086;53.170;6.980;2022-12-18T17:14:33;0.60;99.90
56184;DHT22;42086;53.170;6.980;2022-12-18T17:16:59;0.30;99.90
56184;DHT22;42086;53.170;6.980;2022-12-18T17:19:26;-0.50;99.90
56184;DHT22;42086;53.170;6.980;2022-12-18T17:21:52;-0.40;99.90
56184;DHT22;42086;53.170;6.980;2022-12-18T17:24:19;0.60;99.90
56184;DHT22;42086;53.170;6.980;2022-12-18T17:26:46;-0.40;99.90
56184;DHT22;42086;53.170;6.980;2022-12-18T17:29:18;0.40;99.90
56184;DHT22;42086;53.170;6.980;2022-12-18T17:31:45;-0.40;99.90
56184;DHT22;42086;53.170;6.980;2022-12-18T17:34:12;0.50;99.90
56184;DHT22;42086;53.170;6.980;2022-12-18T17:36:38;-0.40;99.90
56184;DHT22;42086;53.170;6.980;2022-12-18T17:39:05;0.10;99.90
56184;DHT22;42086;53.170;6.980;2022-12-18T17:41:32;0.70;99.90
56184;DHT22;42086;53.170;6.980;2022-12-18T17:44:04;-0.40;99.90
56184;DHT22;42086;53.170;6.980;2022-12-18T17:46:31;-0.40;99.90
56184;DHT22;42086;53.170;6.980;2022-12-18T17:48:59;0.70;99.90
56184;DHT22;42086;53.170;6.980;2022-12-18T17:51:26;0.30;99.90
56184;DHT22;42086;53.170;6.980;2022-12-18T17:53:52;-0.40;99.90
56184;DHT22;42086;53.170;6.980;2022-12-18T17:56:19;-0.30;99.90